Achim Manz-Bothe 1:30:00 row

21,501

Meters

1:30:00.0

Time

2:05.5

Pace

1347

Calories

124

Heart Rate

Average Watts177
Calories Per Hour898
Stroke Rate25

September 29, 2018 16:30:00

Workout
RowErg

Workout Type
Fixed Time

Weight Class
Hwt

Verified
Yes

Entered
Concept2 Utility

Splits

Time Meters Pace Watts Cal/Hr Cal S/M
1:30:00.0 21,501 2:05.5 177 898 1347 25 124
3:00.0 710 2:06.7 172 880 44 25 115
6:00.0 712 2:06.4 173 880 44 26 117
9:00.0 714 2:06.0 175 900 45 25 119
12:00.0 717 2:05.5 177 900 45 25 122
15:00.0 718 2:05.3 178 900 45 26 124
18:00.0 715 2:05.8 175 900 45 25 121
21:00.0 718 2:05.3 178 900 45 25 120
24:00.0 718 2:05.3 178 900 45 25 121
27:00.0 721 2:04.8 180 900 45 26 123
30:00.0 719 2:05.1 178 900 45 26 124
33:00.0 717 2:05.5 177 900 45 26 125
36:00.0 716 2:05.6 176 900 45 26 121
39:00.0 718 2:05.3 178 900 45 26 124
42:00.0 717 2:05.5 177 900 45 26 122
45:00.0 719 2:05.1 178 900 45 26 125
48:00.0 719 2:05.1 178 900 45 26 123
51:00.0 718 2:05.3 178 900 45 26 125
54:00.0 719 2:05.1 178 900 45 26 127
57:00.0 718 2:05.3 178 900 45 26 128
1:00:00.0 716 2:05.6 176 900 45 26 125
1:03:00.0 716 2:05.6 176 900 45 26 126
1:06:00.0 718 2:05.3 178 900 45 26 127
1:09:00.0 715 2:05.8 175 900 45 26 122
1:12:00.0 718 2:05.3 178 900 45 26 128
1:15:00.0 718 2:05.3 178 900 45 26 128
1:18:00.0 717 2:05.5 177 900 45 26 129
1:21:00.0 716 2:05.6 176 900 45 26 129
1:24:00.0 716 2:05.6 176 900 45 26 128
1:27:00.0 716 2:05.6 176 900 45 26 129
1:30:00.0 710 2:06.7 172 880 44 26 124